KDUJ/DUJ METAR and TAF weather

Enter ICAO airport designator
Station Type Date Time Source
KDUJ METAR 2022/12/08 12:53 UTC NOAA

KDUJ 081253Z AUTO 32005KT 9SM FEW007 OVC031 05/03 A3028 RMK AO2 SLP260 T00500028


Station Type Date Time Source
KDUJ Decoded METAR 2022/12/08 12:53 UTC NOAA

DU BOIS-JEFFERSON COUNTY, PA, United States (KDUJ) 41-11N 078-53W
Dec 08, 2022 - 07:53 AM EST / 2022.12.08 1253 UTC
Wind: from the NW (320 degrees) at 6 MPH (5 KT):0
Visibility: 9 mile(s):0
Sky conditions: overcast
Temperature: 41.0 F (5.0 C)
Dew Point: 37.0 F (2.8 C)
Relative Humidity: 85%
Pressure (altimeter): 30.28 in. Hg (1025 hPa)
ob: KDUJ 081253Z AUTO 32005KT 9SM FEW007 OVC031 05/03 A3028 RMK AO2 SLP260 T00500028
cycle: 13

Station Type Date Time Source
KDUJ TAF 2022/12/08 12:39 UTC NOAA

TAF KDUJ 081136Z 0812/0912 32004KT P6SM SCT007 OVC015
FM081800 32005KT P6SM OVC020
FM090000 36005KT P6SM BKN035
FM091000 06005KT P6SM BKN025

Example: see airport list